Time;durP1;ratioP1;P1;durP2;ratioP2;P2;SDS_P1;SDS_P2;PMS_P1;PMS_P2;Temp;Humidity;BMP_temperature;BMP_pressure;BME280_temperature;BME280_humidity;BME280_pressure;Samples;Min_cycle;Max_cycle;Signal;HPM_P1;HPM_P2
2023/09/10 00:02:11;;;;;;;15.77;14.10;;;;;;;23.77;78.70;101569.09;6100410;29;20314;-65
2023/09/10 00:05:34;;;;;;;15.27;13.80;;;;;;;23.83;78.27;101571.03;6110831;28;20232;-65
2023/09/10 00:08:55;;;;;;;16.15;14.52;;;;;;;23.59;79.47;101574.31;6105568;28;20232;-65
2023/09/10 00:12:16;;;;;;;16.75;14.52;;;;;;;23.63;79.68;101587.47;6095529;28;20232;-66
2023/09/10 00:15:37;;;;;;;15.32;13.70;;;;;;;23.60;80.40;101578.75;6097801;28;20228;-65
2023/09/10 00:18:58;;;;;;;14.20;12.82;;;;;;;23.47;80.76;101584.19;6108085;29;20323;-66
2023/09/10 00:22:20;;;;;;;15.05;13.57;;;;;;;23.61;80.49;101586.81;6100500;28;20228;-66
2023/09/10 00:25:41;;;;;;;15.18;13.80;;;;;;;23.47;81.36;101584.19;6108330;28;20678;-65
2023/09/10 00:29:02;;;;;;;15.80;14.18;;;;;;;23.63;81.09;101584.72;6103803;29;20634;-65
2023/09/10 00:32:23;;;;;;;14.95;12.65;;;;;;;23.54;81.19;101574.94;6098200;28;20232;-66
2023/09/10 00:35:44;;;;;;;15.70;14.13;;;;;;;23.61;81.11;101581.31;6106094;29;20227;-65
2023/09/10 00:39:06;;;;;;;13.80;12.52;;;;;;;23.49;81.66;101593.94;6113114;28;22765;-65
2023/09/10 00:42:27;;;;;;;15.20;13.38;;;;;;;23.46;82.06;101586.13;6094543;29;20271;-65
2023/09/10 00:45:48;;;;;;;19.00;14.75;;;;;;;23.43;82.32;101589.25;6094818;28;20231;-65
2023/09/10 00:49:08;;;;;;;16.75;15.13;;;;;;;23.39;81.89;101585.22;6099603;28;20237;-65
2023/09/10 00:52:30;;;;;;;16.00;14.40;;;;;;;23.24;82.56;101578.09;6103235;28;20338;-66
2023/09/10 00:55:53;;;;;;;16.33;14.82;;;;;;;23.26;83.00;101576.84;6097521;29;20244;-65
2023/09/10 00:59:14;;;;;;;16.05;14.40;;;;;;;23.29;82.71;101572.84;6109161;28;20228;-65
2023/09/10 01:02:35;;;;;;;16.83;15.07;;;;;;;23.23;83.09;101576.38;6102927;28;20235;-66
2023/09/10 01:05:56;;;;;;;16.83;15.05;;;;;;;23.26;82.90;101578.75;6101516;29;20232;-65
2023/09/10 01:09:17;;;;;;;16.92;15.20;;;;;;;23.16;82.81;101581.84;6099760;29;20235;-65
2023/09/10 01:12:46;;;;;;;15.65;14.18;;;;;;;23.17;83.17;101572.56;6103023;28;20231;-65
2023/09/10 01:16:13;;;;;;;18.77;16.92;;;;;;;23.06;83.47;101573.09;6102540;28;20231;-65
2023/09/10 01:20:11;;;;;;;15.93;14.43;;;;;;;23.13;83.73;101578.66;6104422;29;20331;-64
2023/09/10 01:23:43;;;;;;;15.85;14.05;;;;;;;23.24;83.47;101572.59;6103617;29;20629;-65
2023/09/10 01:27:06;;;;;;;17.33;15.63;;;;;;;23.26;82.56;101571.31;6097036;28;20255;-65
2023/09/10 01:30:27;;;;;;;17.10;15.52;;;;;;;23.11;83.39;101578.88;6101183;29;20236;-65
2023/09/10 01:33:53;;;;;;;15.25;13.80;;;;;;;23.17;83.25;101577.19;6088827;28;20232;-65
2023/09/10 01:37:19;;;;;;;17.55;15.90;;;;;;;23.18;83.65;101585.25;6099946;29;20511;-65
2023/09/10 01:40:45;;;;;;;17.00;13.68;;;;;;;23.01;83.74;101583.84;6113688;28;20502;-65
2023/09/10 01:44:09;;;;;;;17.20;15.52;;;;;;;22.93;83.96;101579.34;6102165;29;20229;-65
2023/09/10 01:47:29;;;;;;;16.50;15.00;;;;;;;22.68;84.69;101585.47;6096283;28;20255;-65
2023/09/10 01:50:50;;;;;;;17.88;15.98;;;;;;;22.74;85.53;101579.16;6101469;28;20259;-64
2023/09/10 01:54:11;;;;;;;17.52;15.75;;;;;;;22.73;85.48;101581.09;6098190;28;20228;-65
2023/09/10 01:57:32;;;;;;;19.00;17.13;;;;;;;22.89;85.30;101578.06;6106525;28;20315;-65
2023/09/10 02:00:55;;;;;;;17.40;15.80;;;;;;;22.91;84.75;101581.44;6115938;28;20235;-65
2023/09/10 02:04:16;;;;;;;20.08;18.05;;;;;;;22.78;85.27;101584.09;6106382;28;20229;-65
2023/09/10 02:07:37;;;;;;;18.80;16.95;;;;;;;22.62;85.19;101589.88;6101660;28;20385;-65
2023/09/10 02:10:58;;;;;;;20.38;18.48;;;;;;;22.59;85.82;101584.75;6101200;28;20236;-65
2023/09/10 02:14:19;;;;;;;18.90;17.00;;;;;;;22.61;86.44;101585.41;6098971;28;20821;-65
2023/09/10 02:17:41;;;;;;;18.23;16.52;;;;;;;22.53;86.62;101585.50;6101627;28;20379;-65
2023/09/10 02:21:09;;;;;;;20.15;18.15;;;;;;;22.62;86.25;101586.25;6105933;28;20239;-65
2023/09/10 02:24:30;;;;;;;19.50;17.70;;;;;;;22.51;86.21;101586.78;6099828;28;20235;-66
2023/09/10 02:27:51;;;;;;;19.95;17.98;;;;;;;22.51;86.63;101582.09;6100621;28;20232;-65
2023/09/10 02:31:12;;;;;;;21.52;19.25;;;;;;;22.45;86.77;101584.78;6103676;28;20621;-65
2023/09/10 02:34:34;;;;;;;19.73;17.92;;;;;;;22.61;86.60;101585.41;6105572;28;20248;-65
2023/09/10 02:37:55;;;;;;;19.48;17.70;;;;;;;22.53;86.69;101587.44;6106577;28;20324;-65
2023/09/10 02:41:16;;;;;;;21.23;19.23;;;;;;;22.55;86.63;101596.31;6094096;28;20597;-65
2023/09/10 02:44:37;;;;;;;20.25;18.35;;;;;;;22.38;86.89;101595.75;6112282;28;20566;-65
2023/09/10 02:47:58;;;;;;;21.83;19.52;;;;;;;22.42;86.59;101601.69;6107116;28;20240;-65
2023/09/10 02:51:20;;;;;;;22.17;19.73;;;;;;;22.26;87.08;101598.13;6119786;28;20698;-65
2023/09/10 02:54:41;;;;;;;22.55;20.17;;;;;;;22.33;87.36;101594.59;6107828;29;20239;-65
2023/09/10 02:58:02;;;;;;;21.90;19.70;;;;;;;22.34;87.46;101597.19;6103283;29;20239;-65
2023/09/10 03:01:23;;;;;;;23.70;21.17;;;;;;;22.35;87.32;101598.00;6102634;28;20291;-65
2023/09/10 03:04:44;;;;;;;22.90;20.70;;;;;;;22.31;87.12;101603.03;6106635;28;20259;-65
2023/09/10 03:08:06;;;;;;;21.50;19.35;;;;;;;22.41;87.18;101608.22;6103654;28;20232;-65
2023/09/10 03:11:27;;;;;;;23.13;20.83;;;;;;;22.30;87.12;101601.34;6118168;28;20326;-65
2023/09/10 03:14:49;;;;;;;23.65;21.23;;;;;;;22.26;87.54;101608.25;6106542;28;20799;-65
2023/09/10 03:18:10;;;;;;;24.35;21.90;;;;;;;22.21;87.36;101600.63;6106732;29;20235;-65
2023/09/10 03:21:31;;;;;;;24.92;22.42;;;;;;;22.16;87.45;101594.84;6097573;28;20354;-64
2023/09/10 03:24:54;;;;;;;24.08;21.83;;;;;;;22.09;88.18;101593.91;6087177;28;20224;-65
2023/09/10 03:28:15;;;;;;;23.25;20.75;;;;;;;22.08;88.14;101596.88;6096623;29;20231;-65
2023/09/10 03:31:36;;;;;;;26.48;23.75;;;;;;;22.12;88.26;101587.19;6106001;28;20243;-65
2023/09/10 03:34:57;;;;;;;26.30;23.40;;;;;;;22.11;88.43;101593.75;6107853;28;20247;-65
2023/09/10 03:38:18;;;;;;;26.00;23.48;;;;;;;22.07;88.58;101597.91;6106072;28;20247;-64
2023/09/10 03:41:40;;;;;;;27.83;24.10;;;;;;;21.97;88.60;101587.22;6102302;29;20597;-65
2023/09/10 03:45:02;;;;;;;25.70;22.75;;;;;;;22.11;88.62;101588.25;6107559;29;20235;-65
2023/09/10 03:48:22;;;;;;;28.60;25.63;;;;;;;22.01;88.84;101598.66;6101001;28;20327;-65
2023/09/10 03:51:43;;;;;;;30.20;26.98;;;;;;;21.99;89.14;101600.75;6104615;29;20231;-65
2023/09/10 03:55:05;;;;;;;32.20;28.75;;;;;;;21.83;89.43;101607.34;6110943;28;20243;-64
2023/09/10 03:58:28;;;;;;;34.50;30.95;;;;;;;21.73;90.38;101605.88;6105231;29;20251;-65
2023/09/10 04:01:49;;;;;;;35.65;31.83;;;;;;;21.77;90.64;101604.47;6104808;28;20618;-65
2023/09/10 04:05:11;;;;;;;35.08;31.67;;;;;;;21.74;90.95;101608.44;6107850;28;20549;-65
2023/09/10 04:08:32;;;;;;;41.10;36.80;;;;;;;21.71;91.18;101614.31;6099434;29;20235;-65
2023/09/10 04:11:54;;;;;;;43.10;38.42;;;;;;;21.83;91.28;101618.31;6108123;28;20232;-65
2023/09/10 04:15:17;;;;;;;42.25;37.67;;;;;;;21.84;90.99;101611.75;6102739;28;20236;-64
2023/09/10 04:18:38;;;;;;;44.70;39.72;;;;;;;21.85;90.66;101616.22;6106155;28;20263;-65
2023/09/10 04:21:59;;;;;;;47.70;42.70;;;;;;;21.90;90.41;101622.00;6101505;28;20244;-65
2023/09/10 04:25:20;;;;;;;49.80;40.65;;;;;;;21.83;90.21;101615.56;6097015;29;20228;-65
2023/09/10 04:28:42;;;;;;;46.53;40.88;;;;;;;21.84;90.29;101624.66;6104391;28;20232;-65
2023/09/10 04:32:05;;;;;;;41.05;36.80;;;;;;;21.91;90.25;101620.94;6101580;28;20508;-64
2023/09/10 04:35:26;;;;;;;44.78;39.35;;;;;;;21.89;90.12;101623.03;6407246;23;20237;-64
2023/09/10 04:38:47;;;;;;;51.92;43.90;;;;;;;21.41;91.29;101623.59;6163104;28;20234;-65
2023/09/10 04:42:08;;;;;;;45.22;40.33;;;;;;;21.35;91.80;101630.69;6174082;28;20257;-65
2023/09/10 04:45:29;;;;;;;44.20;39.55;;;;;;;21.58;91.52;101629.75;6170465;28;20245;-65
2023/09/10 04:48:52;;;;;;;41.28;34.92;;;;;;;21.81;90.57;101627.75;6170325;28;20545;-65
2023/09/10 04:52:15;;;;;;;44.55;40.15;;;;;;;21.70;90.06;101619.97;6168162;28;20237;-64
2023/09/10 04:55:36;;;;;;;42.05;37.50;;;;;;;21.61;89.80;101629.38;6180666;28;20234;-64
2023/09/10 04:58:57;;;;;;;38.45;34.35;;;;;;;21.64;89.95;101629.84;6174899;28;20261;-64
2023/09/10 05:02:18;;;;;;;45.70;38.88;;;;;;;21.61;89.46;101634.88;6172126;28;20320;-65
2023/09/10 05:05:40;;;;;;;45.22;38.85;;;;;;;21.55;89.91;101630.13;6169748;28;20429;-65
2023/09/10 05:09:01;;;;;;;50.10;43.92;;;;;;;21.27;90.32;101640.88;6163706;28;20550;-65
2023/09/10 05:12:22;;;;;;;43.83;39.13;;;;;;;21.43;91.12;101635.22;6160973;28;20233;-64
2023/09/10 05:15:45;;;;;;;41.65;37.17;;;;;;;21.46;91.17;101634.88;6185606;28;20246;-64
2023/09/10 05:19:06;;;;;;;41.35;34.42;;;;;;;21.50;90.61;101649.91;6176332;28;20230;-65
2023/09/10 05:22:29;;;;;;;35.33;31.60;;;;;;;21.48;90.07;101654.72;6174146;28;20925;-65
2023/09/10 05:25:51;;;;;;;36.58;32.88;;;;;;;21.51;89.82;101657.09;6170940;28;20242;-64
2023/09/10 05:29:12;;;;;;;31.15;28.13;;;;;;;21.46;90.37;101665.88;6182798;28;20225;-64
2023/09/10 05:32:33;;;;;;;34.95;31.45;;;;;;;21.47;89.55;101667.59;6177360;28;20229;-65
2023/09/10 05:35:55;;;;;;;31.05;27.85;;;;;;;21.18;90.15;101664.81;6172750;28;20317;-65
2023/09/10 05:39:17;;;;;;;30.27;27.25;;;;;;;20.92;91.19;101674.44;6156982;28;20267;-65
2023/09/10 05:42:38;;;;;;;31.20;28.00;;;;;;;20.99;92.40;101678.13;6172262;28;20313;-65
2023/09/10 05:45:59;;;;;;;28.75;25.75;;;;;;;21.18;92.12;101672.16;6186124;28;20241;-65
2023/09/10 05:49:20;;;;;;;32.50;28.92;;;;;;;21.19;92.28;101677.50;6170277;28;21687;-65
2023/09/10 05:52:41;;;;;;;31.95;27.13;;;;;;;21.30;91.98;101687.13;6165232;28;20317;-65
2023/09/10 05:56:05;;;;;;;36.58;27.52;;;;;;;21.37;91.78;101690.84;6183758;28;20246;-65
2023/09/10 05:59:26;;;;;;;35.88;29.77;;;;;;;21.19;91.65;101693.94;6172266;28;20317;-64
2023/09/10 06:02:48;;;;;;;35.72;31.15;;;;;;;21.45;91.88;101682.53;6173266;28;20342;-65
2023/09/10 06:06:10;;;;;;;39.13;29.35;;;;;;;21.23;90.62;101680.72;6186839;28;20282;-64
2023/09/10 06:09:31;;;;;;;36.70;29.95;;;;;;;20.93;90.97;101700.81;6174573;28;20622;-64
2023/09/10 06:12:53;;;;;;;35.92;30.23;;;;;;;21.16;91.53;101694.31;6173628;28;20234;-65
2023/09/10 06:16:14;;;;;;;41.08;32.95;;;;;;;21.16;90.85;101704.41;6168208;28;20532;-65
2023/09/10 06:19:35;;;;;;;42.80;33.50;;;;;;;21.05;90.77;101702.97;6182983;28;20233;-65
2023/09/10 06:22:57;;;;;;;41.17;33.72;;;;;;;21.36;89.78;101702.88;6171963;28;20226;-66
2023/09/10 06:26:18;;;;;;;43.20;34.10;;;;;;;21.33;88.98;101709.59;6168600;28;20351;-66
2023/09/10 06:29:42;;;;;;;44.80;34.58;;;;;;;21.07;89.20;101705.53;6167140;28;20234;-65
2023/09/10 06:33:03;;;;;;;49.45;34.45;;;;;;;21.01;90.23;101709.81;6174321;28;20290;-64
2023/09/10 06:36:24;;;;;;;52.55;35.42;;;;;;;20.74;90.81;101713.09;6172609;28;20234;-64
2023/09/10 06:39:45;;;;;;;39.42;28.98;;;;;;;21.20;90.43;101703.88;6152950;28;20271;-65
2023/09/10 06:43:08;;;;;;;42.60;27.88;;;;;;;21.42;89.17;101707.63;6169648;28;20639;-65
2023/09/10 06:46:41;;;;;;;39.95;30.33;;;;;;;21.54;87.68;101702.50;6175109;28;20233;-65
2023/09/10 06:50:02;;;;;;;39.72;30.52;;;;;;;21.65;86.81;101702.94;6172272;28;20245;-64
2023/09/10 06:53:23;;;;;;;38.08;26.88;;;;;;;21.72;86.50;101706.59;6173790;28;20234;-65
2023/09/10 06:56:44;;;;;;;39.55;32.88;;;;;;;21.33;86.91;101706.84;6172053;28;20611;-65
2023/09/10 07:00:07;;;;;;;40.22;32.15;;;;;;;21.11;88.08;101715.94;6172476;28;20261;-65
2023/09/10 07:03:29;;;;;;;40.08;30.40;;;;;;;21.13;88.61;101719.34;6173593;28;20324;-65
2023/09/10 07:06:52;;;;;;;37.95;29.17;;;;;;;21.00;89.27;101720.97;6164282;28;20238;-65
2023/09/10 07:10:13;;;;;;;34.38;27.58;;;;;;;21.36;87.82;101724.84;6164253;28;20253;-66
2023/09/10 07:13:36;;;;;;;34.88;27.25;;;;;;;21.44;87.72;101727.50;6168146;28;20313;-66
2023/09/10 07:16:57;;;;;;;32.50;25.38;;;;;;;21.67;86.68;101722.81;6171201;28;20241;-67
2023/09/10 07:20:19;;;;;;;37.75;27.55;;;;;;;21.68;85.94;101724.50;6168534;28;20582;-66
2023/09/10 07:23:40;;;;;;;32.78;25.75;;;;;;;21.68;85.79;101726.38;6172432;28;20225;-67
2023/09/10 07:27:01;;;;;;;33.15;23.83;;;;;;;21.71;85.87;101735.13;6171802;28;20229;-67
2023/09/10 07:30:22;;;;;;;37.83;26.38;;;;;;;21.96;84.83;101733.84;6171505;28;20226;-67
2023/09/10 07:33:44;;;;;;;40.92;28.63;;;;;;;21.80;84.26;101738.63;6173592;28;20233;-66
2023/09/10 07:37:06;;;;;;;30.55;26.35;;;;;;;21.91;84.84;101749.16;6177803;28;20242;-65
2023/09/10 07:40:26;;;;;;;37.67;27.50;;;;;;;21.97;84.32;101762.13;6169355;28;20230;-65
2023/09/10 07:43:47;;;;;;;35.53;24.20;;;;;;;21.96;84.18;101753.06;6179410;28;20249;-63
2023/09/10 07:47:09;;;;;;;28.90;23.90;;;;;;;22.25;83.07;101760.44;6171592;28;20233;-64
2023/09/10 07:50:29;;;;;;;28.60;23.95;;;;;;;21.99;83.56;101758.16;6183246;28;20507;-65
2023/09/10 07:53:51;;;;;;;24.98;22.30;;;;;;;22.33;82.87;101752.09;6180994;28;20242;-64
2023/09/10 07:57:12;;;;;;;30.40;25.15;;;;;;;22.40;82.57;101761.28;6183349;28;20238;-65
2023/09/10 08:00:34;;;;;;;36.17;26.30;;;;;;;22.11;82.29;101756.63;6185042;28;20237;-65
2023/09/10 08:03:55;;;;;;;36.20;26.30;;;;;;;21.62;84.20;101762.81;6181070;28;20242;-65
2023/09/10 08:07:16;;;;;;;29.30;23.00;;;;;;;21.69;85.07;101763.78;6178540;28;20643;-65
2023/09/10 08:10:38;;;;;;;28.52;23.05;;;;;;;22.09;84.45;101763.38;6182862;28;20254;-65
2023/09/10 08:13:59;;;;;;;36.95;25.70;;;;;;;22.01;83.40;101769.81;6185482;28;20230;-65
2023/09/10 08:17:21;;;;;;;30.52;24.80;;;;;;;22.23;82.85;101771.63;6182480;28;20222;-65
2023/09/10 08:20:42;;;;;;;31.33;24.80;;;;;;;22.15;82.57;101766.19;6181040;28;20614;-65
2023/09/10 08:24:04;;;;;;;29.55;23.98;;;;;;;22.34;82.52;101764.81;6184314;28;20806;-65
2023/09/10 08:27:26;;;;;;;29.02;23.98;;;;;;;22.08;83.08;101769.91;6178245;28;20233;-66
2023/09/10 08:30:47;;;;;;;35.10;25.48;;;;;;;22.36;81.99;101765.47;6175784;28;20292;-67
2023/09/10 08:34:08;;;;;;;31.30;26.55;;;;;;;22.44;80.59;101767.25;6158817;28;20234;-68
2023/09/10 08:37:29;;;;;;;33.03;24.65;;;;;;;22.66;80.13;101771.75;6178930;28;20253;-68
2023/09/10 08:41:00;;;;;;;28.33;21.33;;;;;;;22.59;79.99;101770.84;6163748;28;20718;-68
2023/09/10 08:44:25;;;;;;;29.67;24.00;;;;;;;22.62;79.82;101776.81;6173950;28;20226;-68
2023/09/10 08:47:49;;;;;;;25.05;21.25;;;;;;;22.79;78.97;101778.28;6169800;28;20229;-68
2023/09/10 08:51:11;;;;;;;37.60;27.92;;;;;;;22.73;79.54;101779.06;6175959;28;20309;-68
2023/09/10 08:54:32;;;;;;;36.53;28.77;;;;;;;22.56;79.41;101777.56;6184244;28;20257;-68
2023/09/10 08:57:56;;;;;;;31.45;27.10;;;;;;;22.84;81.03;101783.22;6175664;28;20312;-66
2023/09/10 09:01:19;;;;;;;34.17;27.02;;;;;;;22.18;81.95;101776.81;6172205;28;20234;-66
2023/09/10 09:04:40;;;;;;;44.20;37.88;;;;;;;21.81;83.10;101782.34;6177014;28;20229;-66
2023/09/10 09:08:09;;;;;;;31.13;25.02;;;;;;;21.80;82.93;101788.88;6178680;28;20560;-66
2023/09/10 09:11:30;;;;;;;34.88;24.30;;;;;;;22.14;82.55;101789.22;6177766;28;20229;-66
2023/09/10 09:14:52;;;;;;;35.03;24.05;;;;;;;22.75;79.91;101798.13;6177048;28;20233;-67
2023/09/10 09:18:15;;;;;;;28.88;24.38;;;;;;;22.53;80.03;101793.59;6170527;28;20234;-66
2023/09/10 09:21:37;;;;;;;31.52;22.92;;;;;;;22.39;79.38;101797.19;6175681;28;20250;-66
2023/09/10 09:24:58;;;;;;;30.63;23.40;;;;;;;22.97;78.08;101797.09;6176106;28;20536;-70
2023/09/10 09:28:20;;;;;;;27.20;20.15;;;;;;;24.13;74.18;101797.56;6172693;28;20233;-72
2023/09/10 09:31:41;;;;;;;23.27;19.05;;;;;;;24.44;71.02;101790.56;6177940;28;20277;-72
2023/09/10 09:35:04;;;;;;;29.33;21.98;;;;;;;24.91;69.14;101797.97;6174913;28;20804;-70
2023/09/10 09:38:27;;;;;;;22.27;19.45;;;;;;;24.88;68.73;101795.66;6174839;28;20230;-71
2023/09/10 09:41:51;;;;;;;24.85;18.30;;;;;;;24.96;68.12;101791.84;6176304;28;20237;-72
2023/09/10 09:45:12;;;;;;;26.02;21.15;;;;;;;25.05;67.62;101787.84;6179146;28;20238;-71
2023/09/10 09:48:34;;;;;;;24.60;19.10;;;;;;;25.35;66.58;101778.13;6169772;28;20233;-72
2023/09/10 09:51:57;;;;;;;18.85;16.65;;;;;;;25.68;65.70;101787.31;6176846;28;20237;-71
2023/09/10 09:55:18;;;;;;;26.02;21.20;;;;;;;25.69;64.66;101785.41;6176787;28;20230;-72
2023/09/10 09:58:39;;;;;;;23.27;18.38;;;;;;;25.89;63.75;101787.06;6182763;28;20234;-72
2023/09/10 10:02:00;;;;;;;24.92;20.95;;;;;;;25.05;65.90;101787.84;6177770;28;20225;-72
2023/09/10 10:05:22;;;;;;;22.67;19.45;;;;;;;25.21;65.46;101779.16;6179106;28;20237;-72
2023/09/10 10:08:48;;;;;;;19.60;16.45;;;;;;;25.93;64.66;101780.06;6172333;28;20309;-72
2023/09/10 10:12:11;;;;;;;27.80;21.58;;;;;;;26.01;63.26;101773.47;6180822;28;20234;-71
2023/09/10 10:15:31;;;;;;;21.95;18.25;;;;;;;26.00;62.88;101764.31;6178704;28;20237;-72
2023/09/10 10:18:54;;;;;;;21.70;19.38;;;;;;;26.27;62.85;101767.03;6178737;28;20237;-72
2023/09/10 10:22:15;;;;;;;23.48;16.77;;;;;;;26.98;60.80;101760.38;6177526;28;20241;-72
2023/09/10 10:25:38;;;;;;;24.67;17.40;;;;;;;27.41;59.24;101752.25;6179444;28;20684;-71
2023/09/10 10:28:59;;;;;;;19.02;16.88;;;;;;;27.62;58.31;101749.03;6177913;28;20234;-72
2023/09/10 10:32:27;;;;;;;21.83;18.73;;;;;;;28.06;56.90;101748.03;6179436;28;20230;-72
2023/09/10 10:36:07;;;;;;;25.63;20.70;;;;;;;27.17;58.28;101745.56;6173217;28;20229;-71
2023/09/10 10:39:38;;;;;;;23.55;19.88;;;;;;;27.02;59.43;101742.25;6178796;28;20226;-71
2023/09/10 10:43:08;;;;;;;20.27;17.17;;;;;;;28.39;57.03;101745.72;6176594;28;20222;-67
2023/09/10 10:46:32;;;;;;;28.02;20.67;;;;;;;28.04;55.60;101739.94;6176563;28;20237;-67
2023/09/10 10:49:54;;;;;;;20.33;18.13;;;;;;;28.46;55.27;101733.47;6178715;28;20261;-67
2023/09/10 10:53:18;;;;;;;26.88;21.33;;;;;;;28.73;54.48;101739.53;6176790;28;20361;-67
2023/09/10 10:56:39;;;;;;;17.05;15.02;;;;;;;29.06;54.22;101745.47;6175667;28;20233;-66
2023/09/10 11:00:02;;;;;;;23.00;20.40;;;;;;;27.69;55.59;101733.22;6177115;28;20615;-67
2023/09/10 11:03:23;;;;;;;16.17;12.85;;;;;;;30.34;52.60;101735.34;6181550;28;20230;-66
2023/09/10 11:07:16;;;;;;;18.55;15.90;;;;;;;34.55;44.12;101732.06;6174845;28;22564;-67
2023/09/10 11:10:41;;;;;;;12.93;11.63;;;;;;;36.80;39.72;101737.91;6171704;28;20233;-67
2023/09/10 11:14:05;;;;;;;17.52;14.77;;;;;;;38.27;36.88;101733.63;6170089;28;20242;-65
2023/09/10 11:17:29;;;;;;;17.42;15.25;;;;;;;39.02;35.66;101728.94;6164066;28;20234;-66
2023/09/10 11:20:51;;;;;;;17.80;15.98;;;;;;;38.29;35.19;101725.69;6165439;28;20932;-67
2023/09/10 11:24:25;;;;;;;15.80;14.18;;;;;;;38.77;35.22;101728.47;6179299;28;20226;-67
2023/09/10 11:27:46;;;;;;;16.83;15.25;;;;;;;38.49;35.07;101715.31;6180393;28;20225;-67
2023/09/10 11:31:41;;;;;;;14.55;13.20;;;;;;;39.11;34.72;101721.50;6177907;28;20288;-67
2023/09/10 11:35:26;;;;;;;13.52;10.80;;;;;;;39.46;34.45;101714.41;6176074;28;20237;-67
2023/09/10 11:38:48;;;;;;;14.80;13.40;;;;;;;40.00;33.44;101705.28;6174290;28;20249;-66
2023/09/10 11:42:09;;;;;;;13.48;12.18;;;;;;;40.04;33.89;101711.13;6183305;28;20756;-66
2023/09/10 11:45:32;;;;;;;13.25;12.05;;;;;;;40.38;33.04;101711.56;6171806;28;20236;-66
2023/09/10 11:48:54;;;;;;;13.18;12.00;;;;;;;40.93;32.52;101709.53;6180617;28;20229;-66
2023/09/10 11:52:17;;;;;;;15.68;14.32;;;;;;;40.84;31.50;101703.78;6179807;28;20225;-66
2023/09/10 11:55:37;;;;;;;11.63;10.57;;;;;;;41.21;32.08;101699.75;6187075;28;20814;-66
2023/09/10 11:58:58;;;;;;;13.90;12.70;;;;;;;41.72;30.69;101714.34;6182587;28;20236;-66
2023/09/10 12:02:21;;;;;;;14.13;12.77;;;;;;;41.62;30.80;101713.75;6184750;28;20225;-66
2023/09/10 12:05:42;;;;;;;16.00;14.18;;;;;;;41.07;31.39;101707.50;6180382;28;20498;-66
2023/09/10 12:09:05;;;;;;;12.35;11.10;;;;;;;40.95;32.20;101710.06;6184479;28;20614;-66
2023/09/10 12:12:30;;;;;;;14.02;12.73;;;;;;;41.14;31.06;101703.03;6182539;28;20225;-66
2023/09/10 12:15:53;;;;;;;12.07;11.07;;;;;;;41.81;30.41;101698.22;6178928;28;20530;-66
2023/09/10 12:19:14;;;;;;;8.82;7.93;;;;;;;41.13;31.62;101704.22;6176335;28;20264;-67
2023/09/10 12:22:35;;;;;;;12.85;11.55;;;;;;;41.70;31.29;101698.84;6185018;28;20619;-66
2023/09/10 12:26:00;;;;;;;15.15;13.75;;;;;;;40.28;31.73;101697.66;6187194;28;20666;-66
2023/09/10 12:29:21;;;;;;;13.73;12.52;;;;;;;38.44;34.05;101690.84;6187610;28;20214;-66
2023/09/10 12:32:41;;;;;;;14.82;13.50;;;;;;;39.81;33.36;101693.19;6183890;28;20234;-66
2023/09/10 12:36:02;;;;;;;12.50;11.40;;;;;;;40.60;32.32;101697.50;6183525;28;20225;-66
2023/09/10 12:39:24;;;;;;;11.25;10.25;;;;;;;40.91;32.66;101700.53;6188392;28;20229;-66
2023/09/10 12:42:47;;;;;;;13.00;11.63;;;;;;;40.31;32.64;101694.16;6181193;28;20221;-66
2023/09/10 12:46:08;;;;;;;10.65;9.60;;;;;;;40.22;33.66;101684.78;6180504;28;20249;-66
2023/09/10 12:49:29;;;;;;;13.63;11.40;;;;;;;40.67;32.73;101690.28;6182161;28;20253;-66
2023/09/10 12:52:53;;;;;;;11.15;10.15;;;;;;;40.46;32.65;101685.41;6181508;28;20234;-66
2023/09/10 12:56:15;;;;;;;9.45;8.57;;;;;;;40.46;33.33;101683.41;6176525;28;20226;-66
2023/09/10 12:59:38;;;;;;;12.60;11.50;;;;;;;40.54;32.70;101685.50;6184674;28;20237;-66
2023/09/10 13:02:59;;;;;;;11.18;10.18;;;;;;;40.84;33.13;101688.78;6188213;28;20515;-66
2023/09/10 13:06:20;;;;;;;13.35;12.20;;;;;;;40.49;33.04;101684.78;6180735;28;20804;-66
2023/09/10 13:09:41;;;;;;;11.80;10.70;;;;;;;40.06;32.87;101681.41;6179567;28;20233;-66
2023/09/10 13:13:02;;;;;;;9.20;8.40;;;;;;;39.57;34.42;101667.94;6184903;28;20238;-66
2023/09/10 13:16:24;;;;;;;9.98;9.18;;;;;;;39.24;33.85;101674.72;6182735;28;20225;-66
2023/09/10 13:19:46;;;;;;;9.70;8.90;;;;;;;39.85;33.73;101668.81;6180518;28;20245;-66
2023/09/10 13:23:07;;;;;;;10.90;10.00;;;;;;;38.92;34.27;101672.69;6186219;28;20229;-66
2023/09/10 13:26:28;;;;;;;10.63;9.60;;;;;;;39.45;34.12;101666.75;6177558;28;20301;-66
2023/09/10 13:29:49;;;;;;;9.23;8.32;;;;;;;39.42;34.33;101659.72;6177579;28;20261;-67
2023/09/10 13:33:11;;;;;;;8.90;8.10;;;;;;;39.90;33.96;101665.88;6180413;28;20234;-67
2023/09/10 13:36:32;;;;;;;9.95;9.15;;;;;;;39.23;33.96;101666.53;6179109;28;20226;-67
2023/09/10 13:39:53;;;;;;;11.38;10.32;;;;;;;39.22;34.17;101664.88;6178764;28;20233;-67
2023/09/10 13:43:14;;;;;;;8.35;7.65;;;;;;;39.37;34.95;101664.63;6180274;28;20230;-67
2023/09/10 13:46:36;;;;;;;10.13;9.23;;;;;;;38.84;35.50;101659.25;6168273;28;20241;-67
2023/09/10 13:49:58;;;;;;;9.57;8.77;;;;;;;38.74;35.20;101664.22;6183706;28;20230;-67
2023/09/10 13:53:19;;;;;;;10.20;9.30;;;;;;;37.66;35.59;101656.47;6176972;28;20238;-67
2023/09/10 13:56:40;;;;;;;9.57;8.68;;;;;;;38.05;35.46;101650.72;6173362;28;20237;-67
2023/09/10 14:00:02;;;;;;;9.80;8.90;;;;;;;38.27;35.77;101653.84;6173196;28;21399;-65
2023/09/10 14:03:27;;;;;;;9.60;8.80;;;;;;;38.21;35.24;101652.22;6170945;28;20225;-66
2023/09/10 14:06:49;;;;;;;9.93;9.13;;;;;;;38.19;36.46;101649.69;6171120;28;20234;-65
2023/09/10 14:10:10;;;;;;;9.77;8.88;;;;;;;38.54;35.68;101641.91;6176573;28;20903;-66
2023/09/10 14:13:31;;;;;;;10.20;9.10;;;;;;;37.73;37.27;101656.97;6177160;28;20233;-65
2023/09/10 14:16:52;;;;;;;10.43;9.52;;;;;;;37.43;37.38;101644.06;6184163;28;20234;-65
2023/09/10 14:20:13;;;;;;;10.90;9.90;;;;;;;37.32;37.51;101628.34;6186700;28;20509;-66
2023/09/10 14:23:35;;;;;;;10.02;9.23;;;;;;;35.30;40.24;101641.66;6185846;28;20267;-65
2023/09/10 14:26:57;;;;;;;10.23;9.20;;;;;;;36.02;39.62;101636.50;6182188;28;20229;-65
2023/09/10 14:30:18;;;;;;;11.38;10.20;;;;;;;36.10;39.04;101630.28;6181926;28;20509;-66
2023/09/10 14:33:41;;;;;;;9.55;8.75;;;;;;;36.40;39.34;101634.06;6180501;28;20226;-66
2023/09/10 14:37:02;;;;;;;9.43;8.63;;;;;;;36.09;39.55;101634.22;6183879;28;20237;-66
2023/09/10 14:40:25;;;;;;;10.60;9.45;;;;;;;35.66;39.59;101634.91;6186791;28;20238;-65
2023/09/10 14:43:46;;;;;;;11.25;10.25;;;;;;;34.63;41.34;101625.03;6185609;28;20257;-66
2023/09/10 14:47:07;;;;;;;10.18;9.20;;;;;;;34.74;41.45;101632.34;6185875;28;20221;-65
2023/09/10 14:50:28;;;;;;;10.38;9.40;;;;;;;34.47;42.00;101624.16;6183099;28;20568;-65
2023/09/10 14:53:49;;;;;;;9.80;8.80;;;;;;;33.98;43.29;101633.19;6182921;28;20237;-65
2023/09/10 14:57:11;;;;;;;10.75;9.73;;;;;;;33.77;43.41;101633.06;6169815;28;20257;-67
2023/09/10 15:00:32;;;;;;;11.90;10.80;;;;;;;33.25;42.54;101628.50;6182491;28;21795;-65
2023/09/10 15:03:53;;;;;;;10.73;9.70;;;;;;;33.41;43.22;101622.75;6172641;28;20559;-66
2023/09/10 15:07:13;;;;;;;10.35;9.35;;;;;;;33.23;44.70;101628.78;6184354;28;20249;-65
2023/09/10 15:10:34;;;;;;;10.20;9.40;;;;;;;33.18;44.76;101627.88;6182735;28;20512;-65
2023/09/10 15:13:57;;;;;;;23.13;21.13;;;;;;;33.15;44.80;101623.66;6187637;28;20542;-65
2023/09/10 15:17:17;;;;;;;10.10;9.23;;;;;;;32.93;44.96;101632.13;6179775;28;20258;-66
2023/09/10 15:20:38;;;;;;;11.07;10.05;;;;;;;32.74;45.10;101616.00;6182278;28;20321;-66
2023/09/10 15:23:59;;;;;;;10.70;9.60;;;;;;;32.77;44.60;101619.09;6183979;28;20230;-66